Time;durP1;ratioP1;P1;durP2;ratioP2;P2;SDS_P1;SDS_P2;PMS_P1;PMS_P2;Temp;Humidity;BMP_temperature;BMP_pressure;BME280_temperature;BME280_humidity;BME280_pressure;Samples;Min_cycle;Max_cycle;Signal;HPM_P1;HPM_P2
2023/10/03 00:00:24;;;;;;;18.10;11.03;;;20.50;72.50;;;;;;5034362;28;20674;-69
2023/10/03 00:02:54;;;;;;;17.50;10.97;;;20.60;72.60;;;;;;5044335;28;20222;-70
2023/10/03 00:05:22;;;;;;;17.13;10.77;;;20.50;72.20;;;;;;5054273;28;20210;-69
2023/10/03 00:07:49;;;;;;;16.63;11.07;;;20.50;72.10;;;;;;5053882;28;20202;-69
2023/10/03 00:10:17;;;;;;;18.07;9.93;;;20.50;72.10;;;;;;5054049;28;20305;-69
2023/10/03 00:12:44;;;;;;;19.87;10.57;;;20.50;72.10;;;;;;5053992;28;20221;-69
2023/10/03 00:15:12;;;;;;;13.87;10.00;;;20.40;72.00;;;;;;5053912;28;20230;-69
2023/10/03 00:17:40;;;;;;;14.97;9.90;;;20.40;72.00;;;;;;5056138;28;20231;-70
2023/10/03 00:20:11;;;;;;;20.37;11.93;;;20.40;72.10;;;;;;5068696;28;20248;-69
2023/10/03 00:22:39;;;;;;;18.53;11.13;;;20.40;72.40;;;;;;5054995;28;20283;-69
2023/10/03 00:25:07;;;;;;;17.60;10.83;;;20.30;72.30;;;;;;5067769;28;20641;-69
2023/10/03 00:27:35;;;;;;;15.60;9.97;;;20.30;72.30;;;;;;5065945;28;20198;-70
2023/10/03 00:30:06;;;;;;;16.47;10.17;;;20.30;72.30;;;;;;5067323;28;20241;-69
2023/10/03 00:32:32;;;;;;;15.93;9.70;;;20.20;72.30;;;;;;5066789;28;20237;-70
2023/10/03 00:35:01;;;;;;;16.10;10.23;;;20.20;72.20;;;;;;5067986;28;20273;-69
2023/10/03 00:37:29;;;;;;;16.50;10.43;;;20.20;72.50;;;;;;5067297;28;20225;-69
2023/10/03 00:39:57;;;;;;;16.57;10.30;;;20.10;72.80;;;;;;5048367;28;20195;-70
2023/10/03 00:42:24;;;;;;;16.57;10.20;;;20.10;72.90;;;;;;5056904;28;20237;-71
2023/10/03 00:44:51;;;;;;;16.13;9.90;;;20.00;72.80;;;;;;5061845;28;20296;-70
2023/10/03 00:47:18;;;;;;;17.13;10.63;;;19.90;72.80;;;;;;5053740;28;20469;-69
2023/10/03 00:49:46;;;;;;;19.90;10.80;;;19.90;72.70;;;;;;5053422;28;20305;-69
2023/10/03 00:52:15;;;;;;;17.50;9.90;;;19.90;72.70;;;;;;5039099;28;20198;-70
2023/10/03 00:54:42;;;;;;;15.83;10.33;;;19.90;72.70;;;;;;5053111;28;20205;-69
2023/10/03 00:57:09;;;;;;;19.87;10.20;;;19.90;72.70;;;;;;5052833;28;20708;-69
2023/10/03 00:59:36;;;;;;;18.93;11.23;;;19.90;72.70;;;;;;5053738;28;20289;-69
2023/10/03 01:02:06;;;;;;;15.63;10.20;;;19.90;72.70;;;;;;5053438;28;20206;-69
2023/10/03 01:04:34;;;;;;;16.17;9.67;;;19.80;72.60;;;;;;5052890;28;20232;-69
2023/10/03 01:07:01;;;;;;;17.67;10.83;;;19.80;72.60;;;;;;5052466;28;20649;-69
2023/10/03 01:09:33;;;;;;;18.40;10.77;;;19.80;72.90;;;;;;5052700;28;20255;-70
2023/10/03 01:12:00;;;;;;;16.03;10.67;;;19.80;73.10;;;;;;5051937;28;20205;-69
2023/10/03 01:14:27;;;;;;;15.67;9.73;;;19.70;72.90;;;;;;5052300;28;20748;-69
2023/10/03 01:16:56;;;;;;;18.17;10.60;;;19.70;72.80;;;;;;5052900;28;20210;-69
2023/10/03 01:19:26;;;;;;;16.30;10.27;;;19.70;72.90;;;;;;5052993;28;20208;-69
2023/10/03 01:21:53;;;;;;;15.37;9.63;;;19.70;72.60;;;;;;5051930;28;20198;-69
2023/10/03 01:24:24;;;;;;;16.40;9.83;;;19.70;72.60;;;;;;5052950;28;20587;-69
2023/10/03 01:26:52;;;;;;;15.70;10.23;;;19.70;72.70;;;;;;5053891;28;20665;-70
2023/10/03 01:29:19;;;;;;;16.33;10.13;;;19.70;72.70;;;;;;5052714;28;20225;-69
2023/10/03 01:31:48;;;;;;;15.07;10.13;;;19.60;72.70;;;;;;5052640;28;20325;-69
2023/10/03 01:34:16;;;;;;;14.67;9.33;;;19.60;72.80;;;;;;5036807;28;20207;-69
2023/10/03 01:36:45;;;;;;;15.43;9.03;;;19.60;72.60;;;;;;5032429;28;20237;-69
2023/10/03 01:39:13;;;;;;;16.73;9.77;;;19.50;72.30;;;;;;5032878;28;20203;-69
2023/10/03 01:41:42;;;;;;;14.27;9.47;;;19.50;72.30;;;;;;5032365;28;20230;-69
2023/10/03 01:44:09;;;;;;;14.93;9.33;;;19.50;72.30;;;;;;5032804;28;20260;-69
2023/10/03 01:46:38;;;;;;;15.50;9.20;;;19.50;72.70;;;;;;5067565;28;20247;-69
2023/10/03 01:49:06;;;;;;;16.33;8.30;;;19.40;72.50;;;;;;5072216;28;20261;-69
2023/10/03 01:51:32;;;;;;;15.13;9.20;;;19.40;72.60;;;;;;5055224;28;20206;-69
2023/10/03 01:53:59;;;;;;;13.40;9.23;;;19.40;72.70;;;;;;5051571;28;20230;-69
2023/10/03 01:56:26;;;;;;;15.23;9.27;;;19.30;72.90;;;;;;5052062;28;20206;-69
2023/10/03 01:58:55;;;;;;;14.80;9.90;;;19.30;73.20;;;;;;5050172;28;20228;-70
2023/10/03 02:01:24;;;;;;;14.50;9.10;;;19.30;73.90;;;;;;5052021;28;20448;-69
2023/10/03 02:03:51;;;;;;;15.30;9.03;;;19.40;73.10;;;;;;5051695;28;20253;-69
2023/10/03 02:06:19;;;;;;;15.17;9.80;;;19.40;73.00;;;;;;5051909;28;20201;-69
2023/10/03 02:08:48;;;;;;;14.83;9.87;;;19.30;72.80;;;;;;5051283;28;20202;-70
2023/10/03 02:11:16;;;;;;;14.70;9.40;;;19.30;72.90;;;;;;5051481;28;20259;-69
2023/10/03 02:13:42;;;;;;;12.90;8.30;;;19.30;73.90;;;;;;5052208;28;20300;-69
2023/10/03 02:16:12;;;;;;;16.90;9.87;;;19.30;73.20;;;;;;5051836;28;20739;-69
2023/10/03 02:18:40;;;;;;;15.87;9.60;;;19.20;73.30;;;;;;5051620;28;20268;-69
2023/10/03 02:21:09;;;;;;;14.53;9.00;;;19.20;73.20;;;;;;5043261;28;20473;-69
2023/10/03 02:23:36;;;;;;;13.77;8.77;;;19.20;73.20;;;;;;5031551;28;20208;-69
2023/10/03 02:26:10;;;;;;;13.83;8.97;;;19.20;73.30;;;;;;5051016;28;20228;-69
2023/10/03 02:28:37;;;;;;;16.00;9.50;;;19.10;73.30;;;;;;5051994;28;20205;-69
2023/10/03 02:31:07;;;;;;;14.53;9.47;;;19.10;73.30;;;;;;5051472;28;20230;-69
2023/10/03 02:33:37;;;;;;;15.13;9.57;;;19.10;73.50;;;;;;5051797;28;20292;-69
2023/10/03 02:36:04;;;;;;;16.03;10.20;;;19.10;73.60;;;;;;5051183;28;20229;-69
2023/10/03 02:38:36;;;;;;;15.10;9.97;;;19.10;73.70;;;;;;5051536;28;20205;-69
2023/10/03 02:41:04;;;;;;;17.13;10.33;;;19.10;73.90;;;;;;5051583;28;20233;-69
2023/10/03 02:43:32;;;;;;;16.37;9.17;;;19.10;74.00;;;;;;5051795;28;20233;-69
2023/10/03 02:45:59;;;;;;;15.70;9.60;;;19.10;74.00;;;;;;5051316;28;20209;-69
2023/10/03 02:48:26;;;;;;;17.83;10.83;;;19.10;73.60;;;;;;5051300;28;20222;-69
2023/10/03 02:50:55;;;;;;;17.47;10.30;;;19.10;73.50;;;;;;5051351;28;20228;-69
2023/10/03 02:53:22;;;;;;;15.30;10.03;;;18.90;73.70;;;;;;5050858;28;20337;-69
2023/10/03 02:55:50;;;;;;;15.93;9.93;;;18.90;74.10;;;;;;5051244;28;20448;-70
2023/10/03 02:58:19;;;;;;;15.03;9.57;;;18.90;74.20;;;;;;5051576;28;20744;-70
2023/10/03 03:00:47;;;;;;;18.17;10.73;;;18.90;74.20;;;;;;5051362;28;20582;-69
2023/10/03 03:03:14;;;;;;;16.57;10.10;;;18.90;74.40;;;;;;5051078;28;20947;-69
2023/10/03 03:05:43;;;;;;;16.27;9.80;;;18.90;74.20;;;;;;5050213;28;20222;-69
2023/10/03 03:08:22;;;;;;;15.13;9.67;;;18.90;74.30;;;;;;5050453;28;20294;-69
2023/10/03 03:10:54;;;;;;;17.70;10.60;;;18.90;75.00;;;;;;5053449;28;20691;-70
2023/10/03 03:13:22;;;;;;;16.17;10.17;;;19.00;74.40;;;;;;5055386;28;20212;-69
2023/10/03 03:15:53;;;;;;;15.43;9.93;;;19.00;74.40;;;;;;5054817;28;20230;-69
2023/10/03 03:18:21;;;;;;;18.87;10.60;;;19.00;74.50;;;;;;5054662;28;20452;-70
2023/10/03 03:20:57;;;;;;;17.43;10.43;;;19.00;74.40;;;;;;5048962;28;20226;-69
2023/10/03 03:23:27;;;;;;;16.57;10.60;;;18.90;74.20;;;;;;5044016;28;20204;-69
2023/10/03 03:26:09;;;;;;;17.47;10.20;;;18.90;74.40;;;;;;5054902;28;20210;-70
2023/10/03 03:28:37;;;;;;;18.07;10.73;;;18.90;74.60;;;;;;5055390;28;20635;-69
2023/10/03 03:31:03;;;;;;;19.67;10.80;;;18.90;74.80;;;;;;5054714;28;20237;-69
2023/10/03 03:33:31;;;;;;;18.33;10.60;;;18.90;75.10;;;;;;5055031;28;20298;-69
2023/10/03 03:35:58;;;;;;;14.80;9.50;;;18.90;75.20;;;;;;5042497;28;20206;-69
2023/10/03 03:38:26;;;;;;;13.90;9.17;;;18.90;75.90;;;;;;5035039;28;20210;-70
2023/10/03 03:40:56;;;;;;;16.70;10.53;;;18.90;75.20;;;;;;5000154;28;20209;-70
2023/10/03 03:43:25;;;;;;;16.47;9.60;;;18.90;75.90;;;;;;5035255;28;20321;-69
2023/10/03 03:45:52;;;;;;;16.40;9.90;;;18.90;75.20;;;;;;5034614;28;20570;-69
2023/10/03 03:48:21;;;;;;;16.07;9.63;;;19.00;75.20;;;;;;5047319;28;20669;-69
2023/10/03 03:50:50;;;;;;;17.40;10.03;;;19.00;75.20;;;;;;5054274;28;20233;-69
2023/10/03 03:53:18;;;;;;;17.97;11.37;;;19.00;75.00;;;;;;5054998;28;20232;-69
2023/10/03 03:55:49;;;;;;;17.03;10.63;;;19.00;74.90;;;;;;5054115;28;20205;-69
2023/10/03 03:58:18;;;;;;;17.40;9.80;;;19.00;75.10;;;;;;5055051;28;20277;-70
2023/10/03 04:00:50;;;;;;;16.30;9.80;;;19.00;74.90;;;;;;5054152;28;20198;-70
2023/10/03 04:03:18;;;;;;;15.87;9.40;;;19.00;74.90;;;;;;5053961;28;20212;-69
2023/10/03 04:05:46;;;;;;;17.97;10.20;;;19.00;75.20;;;;;;5054464;28;20360;-69
2023/10/03 04:08:13;;;;;;;16.67;10.47;;;19.00;75.20;;;;;;5054139;28;20217;-69
2023/10/03 04:10:40;;;;;;;20.17;10.87;;;19.00;75.20;;;;;;5053372;28;20230;-69
2023/10/03 04:13:10;;;;;;;20.07;11.93;;;19.00;75.30;;;;;;5054110;28;20194;-69
2023/10/03 04:15:39;;;;;;;16.50;10.17;;;19.00;75.50;;;;;;5053781;28;20232;-69
2023/10/03 04:18:06;;;;;;;16.90;10.57;;;18.90;75.60;;;;;;5053790;28;20240;-69
2023/10/03 04:20:35;;;;;;;16.23;10.23;;;18.90;75.80;;;;;;5053810;28;20216;-70
2023/10/03 04:23:03;;;;;;;18.27;10.33;;;18.90;75.80;;;;;;5052780;28;20460;-69
2023/10/03 04:25:32;;;;;;;16.90;10.87;;;18.90;76.10;;;;;;5053691;28;20202;-69
2023/10/03 04:27:59;;;;;;;23.30;11.47;;;18.90;76.30;;;;;;5054088;28;20285;-69
2023/10/03 04:30:27;;;;;;;18.33;10.83;;;18.90;76.30;;;;;;5053612;28;20228;-70
2023/10/03 04:32:55;;;;;;;16.40;10.80;;;18.90;76.20;;;;;;5053515;28;20225;-69
2023/10/03 04:35:23;;;;;;;15.90;9.90;;;18.90;76.20;;;;;;5053657;28;20741;-69
2023/10/03 04:37:52;;;;;;;16.17;10.17;;;18.90;76.10;;;;;;5053671;28;20222;-69
2023/10/03 04:40:24;;;;;;;16.47;10.30;;;18.90;76.40;;;;;;5053757;28;20458;-69
2023/10/03 04:42:51;;;;;;;19.00;10.27;;;18.80;76.90;;;;;;5053508;28;20263;-69
2023/10/03 04:45:19;;;;;;;17.83;10.17;;;18.90;76.00;;;;;;5053690;28;20217;-69
2023/10/03 04:47:48;;;;;;;17.33;10.10;;;18.90;75.90;;;;;;5053406;28;20239;-69
2023/10/03 04:50:19;;;;;;;15.47;9.83;;;18.80;75.70;;;;;;5053916;28;20218;-68
2023/10/03 04:52:49;;;;;;;17.43;10.23;;;18.80;75.70;;;;;;5054864;28;20198;-69
2023/10/03 04:55:18;;;;;;;16.43;10.50;;;18.80;75.70;;;;;;5053403;28;20670;-69
2023/10/03 04:57:46;;;;;;;18.60;10.90;;;18.80;75.70;;;;;;5053170;28;20464;-69
2023/10/03 05:00:15;;;;;;;15.27;9.93;;;18.80;75.70;;;;;;5052974;28;20253;-69
2023/10/03 05:02:45;;;;;;;18.30;9.83;;;18.80;75.90;;;;;;5052684;28;20456;-70
2023/10/03 05:05:15;;;;;;;17.00;10.37;;;18.70;75.90;;;;;;5052879;28;20233;-69
2023/10/03 05:07:42;;;;;;;16.67;10.30;;;18.70;75.90;;;;;;5053262;28;20638;-69
2023/10/03 05:10:09;;;;;;;15.50;10.30;;;18.70;75.90;;;;;;5052442;28;20506;-71
2023/10/03 05:12:37;;;;;;;17.13;10.00;;;18.70;75.80;;;;;;5052681;28;20216;-69
2023/10/03 05:15:05;;;;;;;15.43;10.27;;;18.70;75.90;;;;;;5052602;28;20206;-69
2023/10/03 05:17:33;;;;;;;15.87;9.53;;;18.70;75.90;;;;;;5032739;28;20288;-69
2023/10/03 05:19:59;;;;;;;14.47;9.90;;;18.70;75.80;;;;;;5040257;28;20452;-69
2023/10/03 05:22:28;;;;;;;19.90;10.17;;;18.70;75.90;;;;;;5033654;28;20237;-69
2023/10/03 05:24:56;;;;;;;15.50;10.53;;;18.70;76.10;;;;;;5032680;28;20503;-69
2023/10/03 05:27:23;;;;;;;16.57;10.67;;;18.70;76.10;;;;;;5032922;28;20266;-69
2023/10/03 05:29:51;;;;;;;17.50;11.20;;;18.60;76.10;;;;;;5033364;28;20297;-69
2023/10/03 05:32:18;;;;;;;16.47;11.20;;;18.60;76.30;;;;;;5040403;28;20287;-69
2023/10/03 05:34:45;;;;;;;18.57;10.70;;;18.60;76.50;;;;;;5051736;28;20443;-70
2023/10/03 05:37:12;;;;;;;17.03;10.53;;;18.60;76.60;;;;;;5053595;28;20449;-69
2023/10/03 05:39:41;;;;;;;16.70;10.57;;;18.60;76.80;;;;;;5052760;28;20198;-69
2023/10/03 05:42:08;;;;;;;15.07;10.37;;;18.60;77.00;;;;;;5052655;28;20233;-69
2023/10/03 05:44:37;;;;;;;16.80;11.07;;;18.60;77.20;;;;;;5051931;28;20230;-69
2023/10/03 05:47:05;;;;;;;18.73;10.43;;;18.60;77.20;;;;;;5052510;28;20440;-69
2023/10/03 05:49:32;;;;;;;19.27;11.00;;;18.70;77.40;;;;;;5052426;28;20316;-69
2023/10/03 05:51:59;;;;;;;18.30;10.40;;;18.70;77.60;;;;;;5052814;28;20225;-70
2023/10/03 05:54:26;;;;;;;17.20;10.43;;;18.70;77.50;;;;;;5051908;28;20482;-69
2023/10/03 05:56:56;;;;;;;15.37;10.07;;;18.80;77.50;;;;;;5052056;28;20205;-69
2023/10/03 05:59:23;;;;;;;17.13;11.10;;;18.80;77.40;;;;;;5050598;28;20216;-70
2023/10/03 06:01:51;;;;;;;16.53;10.83;;;18.80;78.20;;;;;;5052214;28;20224;-69
2023/10/03 06:04:17;;;;;;;16.67;10.70;;;18.80;77.30;;;;;;5052111;28;20632;-69
2023/10/03 06:06:44;;;;;;;17.30;11.10;;;18.90;77.40;;;;;;5052316;28;20455;-69
2023/10/03 06:09:11;;;;;;;17.57;10.20;;;18.90;77.50;;;;;;5051754;28;20206;-70
2023/10/03 06:11:38;;;;;;;17.07;10.97;;;19.00;77.40;;;;;;5051915;28;20233;-69
2023/10/03 06:14:07;;;;;;;16.83;10.90;;;19.00;77.50;;;;;;5051850;28;20449;-69
2023/10/03 06:16:34;;;;;;;15.43;9.80;;;19.00;77.30;;;;;;5051712;28;20836;-69
2023/10/03 06:19:00;;;;;;;17.00;9.90;;;19.10;77.30;;;;;;5051798;28;20728;-69
2023/10/03 06:21:28;;;;;;;16.40;10.73;;;19.10;77.20;;;;;;5051973;28;20205;-70
2023/10/03 06:23:54;;;;;;;16.50;10.13;;;19.20;77.30;;;;;;5051892;28;20210;-69
2023/10/03 06:26:21;;;;;;;16.87;10.40;;;19.20;78.00;;;;;;5051730;28;20198;-69
2023/10/03 06:28:49;;;;;;;15.67;10.17;;;19.10;77.30;;;;;;5051621;28;20237;-69
2023/10/03 06:31:18;;;;;;;15.60;10.40;;;19.20;77.70;;;;;;5051386;28;20290;-69
2023/10/03 06:33:45;;;;;;;14.17;9.47;;;19.20;77.60;;;;;;5051458;28;20256;-69
2023/10/03 06:36:12;;;;;;;13.13;9.00;;;19.20;77.60;;;;;;5051339;28;20198;-69
2023/10/03 06:38:41;;;;;;;14.43;9.60;;;19.30;77.80;;;;;;5051834;28;20253;-69
2023/10/03 06:41:09;;;;;;;11.97;8.23;;;19.30;77.80;;;;;;5051428;28;20564;-70
2023/10/03 06:43:36;;;;;;;14.13;9.27;;;19.40;77.80;;;;;;5051498;28;20202;-70
2023/10/03 06:46:06;;;;;;;11.03;7.57;;;19.50;77.50;;;;;;5054310;28;20210;-70
2023/10/03 06:48:35;;;;;;;8.63;6.03;;;19.60;77.10;;;;;;5043404;28;20286;-70
2023/10/03 06:51:05;;;;;;;13.63;6.63;;;19.70;77.50;;;;;;5056212;28;20225;-70
2023/10/03 06:53:32;;;;;;;10.23;6.53;;;19.90;76.20;;;;;;5044377;28;20698;-70
2023/10/03 06:56:00;;;;;;;8.83;6.47;;;20.00;76.00;;;;;;5035648;28;20206;-69
2023/10/03 06:58:27;;;;;;;10.37;6.87;;;20.20;75.20;;;;;;5035693;28;20202;-69
2023/10/03 07:00:55;;;;;;;9.13;6.57;;;20.40;74.70;;;;;;5035581;28;20222;-69
2023/10/03 07:03:22;;;;;;;9.13;6.80;;;20.50;74.00;;;;;;5035820;28;20216;-69
2023/10/03 07:05:50;;;;;;;7.80;5.67;;;20.60;73.60;;;;;;5047790;28;20251;-69
2023/10/03 07:08:17;;;;;;;8.53;6.20;;;20.80;72.80;;;;;;5055649;28;20297;-69
2023/10/03 07:10:44;;;;;;;9.10;5.70;;;20.90;72.50;;;;;;5055354;28;20221;-69
2023/10/03 07:13:12;;;;;;;8.37;5.43;;;21.00;72.00;;;;;;5055048;28;20214;-69
2023/10/03 07:15:40;;;;;;;8.07;6.23;;;21.10;71.40;;;;;;5055248;28;20255;-69
2023/10/03 07:18:07;;;;;;;7.97;6.37;;;21.20;70.80;;;;;;5055403;28;20250;-69
2023/10/03 07:20:35;;;;;;;8.23;6.00;;;21.30;70.30;;;;;;5055656;28;20204;-69
2023/10/03 07:23:03;;;;;;;9.43;6.03;;;21.40;70.10;;;;;;5019934;28;20257;-69
2023/10/03 07:25:32;;;;;;;10.23;6.17;;;21.60;69.90;;;;;;5055248;28;20205;-69
2023/10/03 07:27:59;;;;;;;9.37;5.90;;;21.60;69.40;;;;;;5055037;28;20686;-69
2023/10/03 07:30:26;;;;;;;8.30;4.83;;;21.70;68.90;;;;;;5055076;28;20206;-70
2023/10/03 07:32:53;;;;;;;9.60;5.60;;;21.80;68.70;;;;;;5054945;28;20240;-69
2023/10/03 07:35:22;;;;;;;6.67;5.17;;;21.80;68.60;;;;;;5053698;28;20288;-69
2023/10/03 07:37:51;;;;;;;9.03;5.83;;;22.00;68.20;;;;;;5055076;28;20205;-69
2023/10/03 07:40:22;;;;;;;8.00;5.70;;;22.00;67.90;;;;;;5055998;28;20657;-69
2023/10/03 07:42:50;;;;;;;7.17;5.77;;;22.10;67.80;;;;;;5054410;28;20583;-69
2023/10/03 07:45:17;;;;;;;9.17;5.10;;;22.10;67.40;;;;;;5055236;28;20206;-70
2023/10/03 07:47:46;;;;;;;9.83;6.40;;;22.20;67.20;;;;;;5043566;28;20698;-69
2023/10/03 07:50:13;;;;;;;7.00;5.27;;;22.20;67.20;;;;;;5035450;28;20234;-69
2023/10/03 07:52:41;;;;;;;8.93;5.60;;;22.30;67.00;;;;;;5035122;28;20273;-69
2023/10/03 07:55:11;;;;;;;6.43;4.87;;;22.30;66.80;;;;;;5034967;28;20320;-69
2023/10/03 07:57:42;;;;;;;6.50;4.87;;;22.40;66.40;;;;;;5033549;28;20663;-69
2023/10/03 08:00:19;;;;;;;7.03;5.33;;;22.50;66.10;;;;;;5048355;28;20261;-69
2023/10/03 08:02:46;;;;;;;7.37;4.90;;;22.50;65.60;;;;;;5054784;28;20205;-69
2023/10/03 08:05:13;;;;;;;7.03;4.60;;;22.70;65.50;;;;;;5054400;28;20279;-69
2023/10/03 08:07:42;;;;;;;6.83;5.43;;;22.70;65.10;;;;;;5054358;28;20206;-69
2023/10/03 08:10:09;;;;;;;5.47;4.80;;;22.70;64.50;;;;;;5053739;28;20205;-69
2023/10/03 08:12:38;;;;;;;5.63;4.77;;;22.80;64.30;;;;;;5048813;28;20214;-69
2023/10/03 08:15:16;;;;;;;7.13;5.20;;;22.90;63.90;;;;;;5047105;28;20678;-69
2023/10/03 08:17:45;;;;;;;5.37;4.70;;;23.00;63.50;;;;;;5044566;28;20248;-69
2023/10/03 08:20:14;;;;;;;6.23;4.70;;;23.10;63.30;;;;;;5034437;28;20284;-71
2023/10/03 08:22:42;;;;;;;7.57;4.70;;;23.10;63.30;;;;;;5047901;28;20197;-72
2023/10/03 08:25:10;;;;;;;6.70;4.87;;;23.20;63.00;;;;;;5051969;28;20210;-70
2023/10/03 08:27:37;;;;;;;6.50;5.00;;;23.30;62.50;;;;;;5049833;28;20228;-70
2023/10/03 08:30:06;;;;;;;7.17;5.53;;;23.40;62.70;;;;;;5037973;28;20631;-70
2023/10/03 08:32:39;;;;;;;6.97;5.33;;;23.50;61.80;;;;;;5055152;28;20234;-70
2023/10/03 08:35:08;;;;;;;8.37;5.27;;;23.60;61.70;;;;;;5055854;28;20213;-71
2023/10/03 08:37:38;;;;;;;6.53;5.00;;;23.80;61.60;;;;;;5059554;28;20189;-70
2023/10/03 08:40:19;;;;;;;5.53;4.57;;;23.90;60.90;;;;;;5057731;28;20198;-71
2023/10/03 08:42:52;;;;;;;5.67;4.60;;;24.10;60.60;;;;;;5046976;28;20209;-69
2023/10/03 08:45:23;;;;;;;8.87;5.43;;;24.20;60.50;;;;;;5053502;28;20284;-69
2023/10/03 08:47:55;;;;;;;6.27;5.07;;;24.40;60.00;;;;;;5054910;28;20208;-69
2023/10/03 08:50:33;;;;;;;6.17;4.80;;;24.50;59.90;;;;;;5054700;28;20333;-69
2023/10/03 08:53:12;;;;;;;5.13;4.63;;;24.70;59.40;;;;;;5054666;28;20232;-69
2023/10/03 08:55:43;;;;;;;7.90;4.93;;;25.00;59.10;;;;;;5053691;28;20291;-69
2023/10/03 08:58:13;;;;;;;6.80;4.73;;;25.30;58.30;;;;;;5054205;28;20201;-69
2023/10/03 09:00:44;;;;;;;5.40;4.50;;;25.60;57.80;;;;;;5052818;28;20283;-69
2023/10/03 09:03:13;;;;;;;4.90;4.40;;;26.00;56.90;;;;;;5053738;28;20204;-69
2023/10/03 09:05:41;;;;;;;8.50;5.13;;;26.30;56.90;;;;;;5053028;28;20262;-69
2023/10/03 09:08:09;;;;;;;5.80;4.60;;;26.60;56.30;;;;;;5039311;28;20287;-70
2023/10/03 09:10:44;;;;;;;6.17;4.60;;;26.80;55.60;;;;;;5033188;28;20604;-69
2023/10/03 09:13:23;;;;;;;5.93;4.70;;;26.90;54.70;;;;;;5033443;28;20229;-70
2023/10/03 09:15:59;;;;;;;6.20;4.27;;;27.10;54.90;;;;;;5044618;28;20692;-69
2023/10/03 09:18:27;;;;;;;5.77;4.30;;;27.20;55.10;;;;;;5048471;28;20216;-69
2023/10/03 09:20:59;;;;;;;8.73;4.60;;;27.30;54.60;;;;;;5051687;28;20241;-70
2023/10/03 09:23:27;;;;;;;5.70;4.50;;;27.40;54.70;;;;;;5052940;28;20543;-70
2023/10/03 09:25:56;;;;;;;6.37;4.20;;;27.60;54.50;;;;;;5052679;28;20207;-69
2023/10/03 09:28:35;;;;;;;5.50;4.33;;;27.60;54.10;;;;;;5052765;28;20213;-71
2023/10/03 09:31:08;;;;;;;5.87;4.57;;;27.60;53.90;;;;;;5042796;28;20283;-71
2023/10/03 09:33:38;;;;;;;10.00;4.40;;;27.70;54.10;;;;;;5033285;28;20230;-69
2023/10/03 09:36:07;;;;;;;9.83;4.87;;;27.80;54.40;;;;;;5033027;28;20236;-70
2023/10/03 09:38:44;;;;;;;7.53;4.43;;;27.90;54.30;;;;;;5032658;28;20230;-70
2023/10/03 09:41:17;;;;;;;8.23;4.63;;;28.00;53.60;;;;;;5032799;28;20206;-70
2023/10/03 09:43:49;;;;;;;6.40;4.50;;;28.00;53.40;;;;;;5034720;28;20311;-69
2023/10/03 09:46:23;;;;;;;6.30;4.70;;;28.00;53.60;;;;;;5052102;28;20208;-70
2023/10/03 09:48:54;;;;;;;7.60;5.07;;;28.20;54.30;;;;;;5052355;28;20268;-69
2023/10/03 09:51:36;;;;;;;6.00;4.70;;;28.30;53.10;;;;;;5041675;28;20213;-69
2023/10/03 09:54:10;;;;;;;6.77;4.70;;;28.30;53.00;;;;;;5032795;28;20288;-70
2023/10/03 09:56:40;;;;;;;6.50;4.80;;;28.40;52.90;;;;;;5032878;28;20204;-70
2023/10/03 09:59:08;;;;;;;7.10;4.67;;;28.50;52.80;;;;;;5033981;28;20267;-70
2023/10/03 10:01:39;;;;;;;6.37;5.03;;;28.60;52.80;;;;;;5048747;28;20714;-68
2023/10/03 10:04:08;;;;;;;8.30;5.50;;;28.70;52.60;;;;;;5050209;28;20209;-70
2023/10/03 10:06:47;;;;;;;6.60;4.47;;;28.70;52.50;;;;;;5051521;28;20203;-70
2023/10/03 10:09:27;;;;;;;7.17;5.33;;;28.70;52.50;;;;;;5052596;28;20236;-70
2023/10/03 10:12:11;;;;;;;7.83;5.13;;;28.70;52.80;;;;;;5052200;28;20240;-69
2023/10/03 10:15:13;;;;;;;7.17;4.47;;;28.70;52.40;;;;;;5051865;28;20212;-69
2023/10/03 10:17:49;;;;;;;7.30;5.23;;;28.90;52.70;;;;;;5051766;28;20228;-70
2023/10/03 10:20:19;;;;;;;7.47;4.80;;;29.00;51.60;;;;;;5050020;28;20205;-70
2023/10/03 10:23:16;;;;;;;6.13;5.10;;;29.00;52.10;;;;;;5031920;28;20261;-69
2023/10/03 10:25:50;;;;;;;7.30;5.37;;;29.10;51.50;;;;;;5031677;28;20224;-70
2023/10/03 10:28:21;;;;;;;6.53;5.13;;;29.20;51.90;;;;;;5032244;28;20248;-69
2023/10/03 10:31:17;;;;;;;7.43;5.80;;;29.40;51.60;;;;;;5033220;28;20618;-69
2023/10/03 10:33:46;;;;;;;6.10;5.00;;;29.40;50.90;;;;;;5041457;28;20230;-70
2023/10/03 10:36:13;;;;;;;7.33;5.00;;;29.30;51.50;;;;;;5051355;28;20214;-68
2023/10/03 10:38:53;;;;;;;6.47;5.40;;;29.30;51.90;;;;;;5052019;28;20275;-69
2023/10/03 10:41:27;;;;;;;6.87;5.10;;;29.20;51.70;;;;;;5032015;28;20300;-68
2023/10/03 10:44:16;;;;;;;7.87;5.33;;;29.10;52.20;;;;;;5031888;28;20228;-69
2023/10/03 10:46:46;;;;;;;8.50;5.53;;;28.90;52.30;;;;;;5051422;28;20206;-69
2023/10/03 10:49:58;;;;;;;8.53;5.30;;;28.60;53.40;;;;;;5051511;28;20261;-69
2023/10/03 10:52:25;;;;;;;6.63;5.23;;;28.30;54.10;;;;;;5044784;28;20228;-69
2023/10/03 10:54:52;;;;;;;9.77;6.07;;;28.30;54.60;;;;;;5051509;28;20229;-70
2023/10/03 10:57:19;;;;;;;6.17;5.47;;;28.20;54.80;;;;;;5051693;28;20639;-70
2023/10/03 10:59:46;;;;;;;6.70;5.17;;;28.20;55.00;;;;;;5044928;28;20244;-70
2023/10/03 11:02:20;;;;;;;7.33;5.53;;;28.20;55.10;;;;;;5039584;28;20289;-69
2023/10/03 11:04:53;;;;;;;6.83;5.97;;;28.20;55.40;;;;;;5021037;28;20215;-69
2023/10/03 11:07:22;;;;;;;8.37;6.00;;;28.10;55.50;;;;;;5051926;28;20193;-69
2023/10/03 11:09:50;;;;;;;8.73;5.77;;;28.10;55.60;;;;;;5052021;28;20209;-69
2023/10/03 11:12:24;;;;;;;6.53;5.10;;;28.10;55.80;;;;;;5040905;28;20225;-69
2023/10/03 11:14:53;;;;;;;6.60;5.60;;;28.00;56.10;;;;;;5031631;28;20217;-70
2023/10/03 11:17:21;;;;;;;7.73;4.97;;;27.90;56.40;;;;;;5031585;28;20230;-68
2023/10/03 11:19:49;;;;;;;7.50;5.40;;;27.80;57.20;;;;;;5037489;28;20201;-70
2023/10/03 11:22:17;;;;;;;5.83;5.23;;;27.70;57.00;;;;;;5051537;28;20228;-69
2023/10/03 11:24:46;;;;;;;6.90;5.00;;;27.50;57.20;;;;;;5051702;28;20208;-70
2023/10/03 11:27:26;;;;;;;7.30;5.63;;;27.50;57.50;;;;;;5050753;28;20771;-69
2023/10/03 11:29:53;;;;;;;6.17;5.10;;;27.40;57.60;;;;;;5037996;28;20545;-70
2023/10/03 11:32:23;;;;;;;6.87;4.60;;;27.40;57.10;;;;;;5053798;28;20756;-68
2023/10/03 11:34:51;;;;;;;8.43;5.23;;;27.50;57.10;;;;;;5053577;28;20224;-68
2023/10/03 11:37:36;;;;;;;5.83;4.70;;;27.40;56.60;;;;;;5055271;28;20632;-69
2023/10/03 11:40:14;;;;;;;6.53;4.27;;;27.30;56.70;;;;;;5054988;28;20200;-69
2023/10/03 11:42:51;;;;;;;9.40;5.40;;;27.30;56.80;;;;;;5054541;28;20200;-69
2023/10/03 11:45:19;;;;;;;5.73;4.40;;;27.30;56.90;;;;;;5025789;28;20204;-70
2023/10/03 11:48:01;;;;;;;5.50;4.10;;;27.40;57.00;;;;;;5034875;28;20210;-69
2023/10/03 11:50:28;;;;;;;5.77;4.07;;;27.40;56.80;;;;;;5034856;28;20251;-69
2023/10/03 11:53:00;;;;;;;6.40;4.07;;;27.30;56.60;;;;;;5034444;28;20319;-69
2023/10/03 11:55:31;;;;;;;5.73;3.80;;;27.30;57.00;;;;;;5000350;28;20220;-69
2023/10/03 11:57:58;;;;;;;6.03;4.10;;;27.30;57.00;;;;;;5054116;28;20247;-68
2023/10/03 12:00:25;;;;;;;5.17;3.80;;;27.20;57.10;;;;;;5054543;28;20226;-69
2023/10/03 12:02:53;;;;;;;6.07;3.90;;;27.20;57.10;;;;;;5054731;28;20546;-69
2023/10/03 12:05:21;;;;;;;4.40;3.70;;;27.20;56.80;;;;;;5054176;28;20219;-70
2023/10/03 12:07:49;;;;;;;5.97;4.07;;;27.20;56.90;;;;;;5054654;28;20216;-69
2023/10/03 12:10:17;;;;;;;8.33;3.83;;;27.30;56.70;;;;;;5054811;28;20677;-70
2023/10/03 12:12:46;;;;;;;5.30;3.83;;;27.30;57.00;;;;;;5053706;28;20230;-70
2023/10/03 12:15:13;;;;;;;6.20;4.07;;;27.20;56.60;;;;;;5054074;28;20216;-69
2023/10/03 12:17:41;;;;;;;4.63;3.87;;;27.10;56.60;;;;;;5053889;28;20275;-69
2023/10/03 12:20:11;;;;;;;7.63;3.90;;;27.20;56.40;;;;;;5053852;28;20212;-69
2023/10/03 12:22:41;;;;;;;7.33;4.60;;;27.20;56.20;;;;;;5049175;28;20219;-70
2023/10/03 12:25:11;;;;;;;8.63;4.50;;;27.20;56.40;;;;;;5039419;28;20616;-70
2023/10/03 12:27:38;;;;;;;7.67;4.40;;;27.20;56.10;;;;;;5035546;28;20237;-70
2023/10/03 12:30:10;;;;;;;5.53;4.07;;;27.30;56.80;;;;;;5054067;28;20580;-69
2023/10/03 12:32:38;;;;;;;7.23;4.20;;;27.40;55.70;;;;;;5053304;28;20240;-70
2023/10/03 12:35:06;;;;;;;7.20;4.10;;;27.40;55.40;;;;;;5052667;28;20200;-69
2023/10/03 12:37:34;;;;;;;5.07;3.67;;;27.60;55.40;;;;;;5038578;28;20641;-70
2023/10/03 12:40:04;;;;;;;8.10;4.13;;;27.70;55.30;;;;;;5033986;28;20575;-69
2023/10/03 12:42:32;;;;;;;8.33;3.67;;;28.10;54.60;;;;;;5031943;28;20205;-68
2023/10/03 12:45:03;;;;;;;6.07;4.10;;;28.20;54.30;;;;;;5033561;28;20236;-68
2023/10/03 12:47:32;;;;;;;7.70;4.00;;;28.20;53.70;;;;;;5033971;28;20233;-70
2023/10/03 12:49:59;;;;;;;5.17;3.90;;;28.20;53.90;;;;;;5037517;28;20237;-68